createdAt,value
2022-12-15T00:05:19.955Z,39.63
2022-12-15T00:11:41.269Z,37.73
2022-12-15T00:18:03.730Z,37.53
2022-12-15T00:24:25.327Z,42.27
2022-12-15T00:30:49.855Z,39.57
2022-12-15T00:37:12.730Z,40.73
2022-12-15T00:43:16.831Z,38.17
2022-12-15T00:49:38.099Z,36.63
2022-12-15T00:56:00.598Z,37.43
2022-12-15T01:02:22.347Z,37.73
2022-12-15T01:08:43.627Z,36.87
2022-12-15T01:15:06.288Z,42.80
2022-12-15T01:21:10.324Z,34.53
2022-12-15T01:27:13.812Z,36.33
2022-12-15T01:33:19.146Z,36.50
2022-12-15T01:39:22.533Z,37.73
2022-12-15T01:45:49.974Z,35.40
2022-12-15T01:51:57.916Z,39.73
2022-12-15T01:58:04.621Z,36.03
2022-12-15T02:04:08.495Z,38.23
2022-12-15T02:10:13.490Z,38.63
2022-12-15T02:16:21.410Z,35.27
2022-12-15T02:22:29.160Z,35.33
2022-12-15T02:28:43.741Z,37.47
2022-12-15T02:34:52.980Z,37.53
2022-12-15T02:40:59.381Z,36.30
2022-12-15T02:47:11.064Z,41.87
2022-12-15T02:53:25.062Z,38.47
2022-12-15T02:59:44.017Z,46.17
2022-12-15T03:05:48.391Z,36.73
2022-12-15T03:11:53.114Z,36.23
2022-12-15T03:17:56.696Z,36.60
2022-12-15T03:24:00.380Z,37.57
2022-12-15T03:30:05.507Z,36.90
2022-12-15T03:36:09.331Z,32.60
2022-12-15T03:42:12.761Z,39.30
2022-12-15T03:48:17.788Z,35.73
2022-12-15T03:54:22.336Z,32.63
2022-12-15T04:00:25.990Z,31.80
2022-12-15T04:06:31.479Z,32.80
2022-12-15T04:12:34.836Z,33.50
2022-12-15T04:18:38.482Z,30.77
2022-12-15T04:25:00.783Z,34.17
2022-12-15T04:31:23.507Z,34.20
2022-12-15T04:37:44.335Z,32.63
2022-12-15T04:44:06.585Z,34.60
2022-12-15T04:50:29.303Z,33.43
2022-12-15T04:56:51.012Z,33.30
2022-12-15T05:03:18.083Z,36.10
2022-12-15T05:09:39.594Z,34.07
2022-12-15T05:16:00.780Z,35.03
2022-12-15T05:22:23.404Z,32.70
2022-12-15T05:28:44.446Z,48.17
2022-12-15T05:34:48.041Z,88.43
2022-12-15T05:40:52.848Z,142.63
2022-12-15T05:46:56.316Z,51.17
2022-12-15T05:52:59.894Z,49.77
2022-12-15T05:59:05.541Z,51.67
2022-12-15T06:05:09.827Z,55.90
2022-12-15T06:11:14.074Z,41.43
2022-12-15T06:17:18.836Z,38.90
2022-12-15T06:23:22.180Z,43.43
2022-12-15T06:29:25.837Z,41.83
2022-12-15T06:35:30.767Z,41.63
2022-12-15T06:41:34.375Z,48.13
2022-12-15T06:47:37.795Z,44.63
2022-12-15T06:53:48.554Z,46.73
2022-12-15T06:59:52.093Z,43.57
2022-12-15T07:06:03.149Z,50.00
2022-12-15T07:12:08.587Z,52.33
2022-12-15T07:18:11.963Z,51.87
2022-12-15T07:24:15.539Z,51.33
2022-12-15T07:30:20.497Z,58.10
2022-12-15T07:36:24.102Z,50.13
2022-12-15T07:42:27.690Z,52.42
2022-12-15T07:48:32.476Z,54.67
2022-12-15T07:54:36.580Z,62.27
2022-12-15T08:00:43.805Z,57.83
2022-12-15T08:06:51.752Z,61.87
2022-12-15T08:12:55.717Z,60.80
2022-12-15T08:18:59.107Z,55.47
2022-12-15T08:25:04.156Z,59.73
2022-12-15T08:31:08.638Z,67.13
2022-12-15T08:37:12.186Z,63.33
2022-12-15T08:43:17.021Z,63.53
2022-12-15T08:49:22.286Z,66.83
2022-12-15T08:55:26.075Z,71.13
2022-12-15T09:01:32.680Z,73.93
2022-12-15T09:07:38.298Z,79.17
2022-12-15T09:13:44.212Z,101.30
2022-12-15T09:19:49.130Z,79.73
2022-12-15T09:25:52.596Z,96.27
2022-12-15T09:31:56.043Z,80.73
2022-12-15T09:38:00.901Z,80.50
2022-12-15T09:44:05.810Z,91.33
2022-12-15T09:50:11.993Z,94.40
2022-12-15T09:56:20.260Z,94.87
2022-12-15T10:02:33.174Z,98.67
2022-12-15T10:08:39.396Z,89.40
2022-12-15T10:14:46.254Z,78.80
2022-12-15T10:20:55.080Z,90.33
2022-12-15T10:27:02.720Z,92.20
2022-12-15T10:33:13.714Z,95.43
2022-12-15T10:39:17.815Z,90.43
2022-12-15T10:45:33.457Z,90.10
2022-12-15T10:51:40.391Z,94.03
2022-12-15T10:57:58.990Z,94.63
2022-12-15T11:04:04.657Z,91.17
2022-12-15T11:10:26.213Z,98.07
2022-12-15T11:16:32.942Z,95.40
2022-12-15T11:22:39.720Z,86.93
2022-12-15T11:28:46.042Z,89.07
2022-12-15T11:34:53.737Z,84.17
2022-12-15T11:40:59.730Z,81.60
2022-12-15T11:47:08.447Z,86.27
2022-12-15T11:53:17.056Z,98.30
2022-12-15T11:59:40.045Z,96.47
2022-12-15T12:05:51.149Z,98.70
2022-12-15T12:11:58.385Z,92.17
2022-12-15T12:18:04.782Z,84.00
2022-12-15T12:24:12.725Z,80.63
2022-12-15T12:30:19.776Z,78.10
2022-12-15T12:36:23.513Z,84.90
2022-12-15T12:42:32.474Z,79.10
2022-12-15T12:48:39.737Z,73.03
2022-12-15T12:54:44.947Z,74.27
2022-12-15T13:01:06.040Z,67.87
2022-12-15T13:07:30.128Z,48.70
2022-12-15T13:13:41.938Z,48.05
2022-12-15T13:20:03.813Z,44.08
2022-12-15T13:26:16.366Z,41.92
2022-12-15T13:32:28.703Z,41.30
2022-12-15T13:38:53.109Z,43.05
2022-12-15T13:44:59.790Z,44.45
2022-12-15T13:51:05.336Z,38.60
2022-12-15T13:57:11.518Z,36.28
2022-12-15T14:03:16.469Z,36.25
2022-12-15T14:09:23.193Z,34.75
2022-12-15T14:15:28.595Z,42.90
2022-12-15T14:21:33.342Z,42.92
2022-12-15T14:27:36.966Z,39.85
2022-12-15T14:33:42.221Z,40.47
2022-12-15T14:39:47.783Z,36.63
2022-12-15T14:45:56.246Z,36.83
2022-12-15T14:52:02.794Z,36.55
2022-12-15T15:04:36.742Z,39.65
2022-12-15T15:10:40.497Z,41.40
2022-12-15T15:16:44.149Z,38.53
2022-12-15T15:22:49.744Z,47.35
2022-12-15T15:28:53.480Z,45.63
2022-12-15T15:34:57.787Z,46.20
2022-12-15T15:41:03.690Z,47.17
2022-12-15T15:47:07.212Z,59.03
2022-12-15T15:53:12.831Z,52.90
2022-12-15T15:59:18.231Z,48.25
2022-12-15T16:05:22.223Z,46.97
2022-12-15T16:11:27.160Z,47.13
2022-12-15T16:17:31.929Z,48.63
2022-12-15T16:23:35.583Z,46.42
2022-12-15T16:29:39.230Z,47.67
2022-12-15T16:35:44.494Z,50.03
2022-12-15T16:41:47.845Z,49.47
2022-12-15T16:47:51.471Z,51.47
2022-12-15T16:53:56.594Z,73.50
2022-12-15T16:59:59.955Z,43.87
2022-12-15T17:06:06.815Z,43.57
2022-12-15T17:12:14.605Z,46.20
2022-12-15T17:18:17.991Z,71.03
2022-12-15T17:24:22.421Z,55.40
2022-12-15T17:30:27.523Z,43.30
2022-12-15T17:36:30.948Z,45.00
2022-12-15T17:42:34.387Z,41.10
2022-12-15T17:48:39.462Z,41.47
2022-12-15T17:54:42.873Z,41.38
2022-12-15T18:00:49.285Z,38.77
2022-12-15T18:06:59.661Z,40.78
2022-12-15T18:13:06.747Z,40.90
2022-12-15T18:19:10.169Z,40.07
2022-12-15T18:25:20.297Z,42.43
2022-12-15T18:31:26.194Z,45.37
2022-12-15T18:37:30.533Z,44.83
2022-12-15T18:43:36.136Z,50.40
2022-12-15T18:49:39.515Z,50.13
2022-12-15T18:55:43.005Z,48.93
2022-12-15T19:01:52.102Z,45.17
2022-12-15T19:07:56.199Z,42.20
2022-12-15T19:14:00.896Z,52.20
2022-12-15T19:20:21.307Z,52.80
2022-12-15T19:26:24.724Z,65.33
2022-12-15T19:32:28.247Z,70.37
2022-12-15T19:38:33.942Z,59.73
2022-12-15T19:44:37.381Z,54.20
2022-12-15T19:50:42.326Z,58.37
2022-12-15T19:56:47.544Z,55.30
2022-12-15T20:02:51.967Z,63.97
2022-12-15T20:08:56.937Z,89.57
2022-12-15T20:15:01.798Z,84.37
2022-12-15T20:21:05.401Z,91.73
2022-12-15T20:27:12.293Z,92.53
2022-12-15T20:33:17.729Z,103.20
2022-12-15T20:39:25.582Z,105.70
2022-12-15T20:45:29.390Z,95.47
2022-12-15T20:51:34.701Z,91.50
2022-12-15T20:57:38.099Z,88.17
2022-12-15T21:03:41.820Z,75.07
2022-12-15T21:09:47.018Z,90.27
2022-12-15T21:15:50.602Z,83.37
2022-12-15T21:21:55.857Z,93.50
2022-12-15T21:28:00.765Z,77.47
2022-12-15T21:34:04.151Z,72.67
2022-12-15T21:40:08.354Z,74.47
2022-12-15T21:46:15.973Z,80.37
2022-12-15T21:52:20.001Z,77.53
2022-12-15T21:58:24.981Z,71.00
2022-12-15T22:04:31.242Z,68.97
2022-12-15T22:10:34.592Z,65.10
2022-12-15T22:16:37.970Z,63.47
2022-12-15T22:22:42.727Z,52.50
2022-12-15T22:28:46.521Z,45.73
2022-12-15T22:34:50.088Z,44.50
2022-12-15T22:40:58.965Z,42.37
2022-12-15T22:47:03.430Z,45.03
2022-12-15T22:53:10.606Z,37.63
2022-12-15T22:59:19.347Z,40.50
2022-12-15T23:05:22.968Z,34.37
2022-12-15T23:11:38.642Z,34.37
2022-12-15T23:17:43.713Z,27.93
2022-12-15T23:23:47.363Z,26.00
2022-12-15T23:29:50.792Z,27.40
2022-12-15T23:35:57.270Z,27.77
2022-12-15T23:42:00.794Z,29.80
2022-12-15T23:48:05.313Z,27.53
2022-12-15T23:54:10.840Z,22.97
